Time;durP1;ratioP1;P1;durP2;ratioP2;P2;SDS_P1;SDS_P2;PMS_P1;PMS_P2;Temp;Humidity;BMP_temperature;BMP_pressure;BME280_temperature;BME280_humidity;BME280_pressure;Samples;Min_cycle;Max_cycle;Signal;HPM_P1;HPM_P2
2022/12/03 00:01:32;;;;;;;;;;;21.30;38.00;;;;;;465013;256;1221;-44
2022/12/03 00:03:35;;;;;;;;;;;21.30;38.10;;;;;;465131;256;2170;-43
2022/12/03 00:05:35;;;;;;;;;;;21.40;38.00;;;;;;464911;256;1752;-44
2022/12/03 00:07:36;;;;;;;;;;;21.30;38.00;;;;;;464825;256;1769;-44
2022/12/03 00:09:38;;;;;;;;;;;21.30;38.20;;;;;;464761;256;1240;-43
2022/12/03 00:11:39;;;;;;;;;;;21.30;38.20;;;;;;464889;256;1670;-44
2022/12/03 00:13:41;;;;;;;;;;;21.30;38.10;;;;;;465082;256;1257;-44
2022/12/03 00:15:42;;;;;;;;;;;21.30;38.10;;;;;;464800;256;1710;-44
2022/12/03 00:17:43;;;;;;;;;;;21.30;38.10;;;;;;464843;256;1710;-43
2022/12/03 00:19:44;;;;;;;;;;;21.30;38.20;;;;;;464739;256;1368;-44
2022/12/03 00:21:46;;;;;;;;;;;21.30;38.20;;;;;;464826;256;1291;-43
2022/12/03 00:23:47;;;;;;;;;;;21.30;38.20;;;;;;464726;256;2198;-43
2022/12/03 00:25:48;;;;;;;;;;;21.30;38.20;;;;;;464735;256;1362;-43
2022/12/03 00:27:50;;;;;;;;;;;21.30;38.20;;;;;;465179;256;1226;-44
2022/12/03 00:29:51;;;;;;;;;;;21.30;38.20;;;;;;465055;256;1205;-44
2022/12/03 00:31:52;;;;;;;;;;;21.30;38.20;;;;;;464819;256;1204;-44
2022/12/03 00:33:54;;;;;;;;;;;21.30;38.20;;;;;;464796;256;1068;-44
2022/12/03 00:35:55;;;;;;;;;;;21.30;38.10;;;;;;465064;256;1675;-43
2022/12/03 00:37:56;;;;;;;;;;;21.30;38.10;;;;;;464915;256;1149;-43
2022/12/03 00:39:58;;;;;;;;;;;21.30;38.10;;;;;;464877;256;1119;-43
2022/12/03 00:41:59;;;;;;;;;;;21.30;38.10;;;;;;464761;256;1237;-44
2022/12/03 00:44:00;;;;;;;;;;;21.30;38.20;;;;;;465176;256;2178;-43
2022/12/03 00:46:02;;;;;;;;;;;21.20;38.20;;;;;;464814;256;1235;-44
2022/12/03 00:48:03;;;;;;;;;;;21.20;38.20;;;;;;465017;256;1266;-44
2022/12/03 00:50:04;;;;;;;;;;;21.20;38.20;;;;;;465137;256;1270;-44
2022/12/03 00:52:06;;;;;;;;;;;21.20;38.20;;;;;;464988;256;1307;-44
2022/12/03 00:54:07;;;;;;;;;;;21.30;38.20;;;;;;464753;256;1230;-44
2022/12/03 00:56:08;;;;;;;;;;;21.30;38.20;;;;;;464925;256;1362;-43
2022/12/03 00:58:10;;;;;;;;;;;21.30;38.20;;;;;;464875;256;1459;-44
2022/12/03 01:00:11;;;;;;;;;;;21.20;38.20;;;;;;464888;256;1381;-43
2022/12/03 01:02:12;;;;;;;;;;;21.20;38.20;;;;;;464805;256;1220;-43
2022/12/03 01:04:14;;;;;;;;;;;21.30;38.20;;;;;;464754;256;2147;-44
2022/12/03 01:06:15;;;;;;;;;;;21.30;38.20;;;;;;464799;256;1267;-44
2022/12/03 01:08:16;;;;;;;;;;;21.20;38.10;;;;;;464901;256;1309;-43
2022/12/03 01:10:18;;;;;;;;;;;21.30;38.10;;;;;;465144;256;1378;-44
2022/12/03 01:12:19;;;;;;;;;;;21.30;38.10;;;;;;464827;256;1236;-44
2022/12/03 01:14:20;;;;;;;;;;;21.20;38.20;;;;;;464746;256;1639;-44
2022/12/03 01:16:22;;;;;;;;;;;21.20;38.20;;;;;;464667;256;1261;-43
2022/12/03 01:18:23;;;;;;;;;;;21.20;38.20;;;;;;464705;256;1295;-43
2022/12/03 01:20:24;;;;;;;;;;;21.30;38.20;;;;;;464950;256;1319;-44
2022/12/03 01:22:26;;;;;;;;;;;21.20;38.20;;;;;;464919;256;1401;-43
2022/12/03 01:24:27;;;;;;;;;;;21.20;38.20;;;;;;464987;256;2190;-44
2022/12/03 01:26:28;;;;;;;;;;;21.20;38.20;;;;;;464854;256;1319;-44
2022/12/03 01:28:30;;;;;;;;;;;21.20;38.20;;;;;;464652;256;1278;-43
2022/12/03 01:32:15;;;;;;;;;;;21.20;38.20;;;;;;464502;256;1666;-44
2022/12/03 01:32:32;;;;;;;;;;;21.20;38.20;;;;;;463592;256;1677;-43
2022/12/03 01:34:34;;;;;;;;;;;21.30;38.20;;;;;;464894;256;1319;-43
2022/12/03 01:36:35;;;;;;;;;;;21.30;38.20;;;;;;464748;256;1721;-43
2022/12/03 01:38:36;;;;;;;;;;;21.20;38.10;;;;;;464774;256;1220;-44
2022/12/03 01:40:38;;;;;;;;;;;21.30;38.10;;;;;;464632;256;1285;-44
2022/12/03 01:42:39;;;;;;;;;;;21.30;38.10;;;;;;464639;256;1633;-44
2022/12/03 01:44:40;;;;;;;;;;;21.40;37.90;;;;;;465056;256;2213;-43
2022/12/03 01:46:42;;;;;;;;;;;21.60;37.50;;;;;;464726;256;1290;-43
2022/12/03 01:48:43;;;;;;;;;;;21.80;37.30;;;;;;464711;256;1724;-44
2022/12/03 01:50:44;;;;;;;;;;;21.90;37.00;;;;;;464718;256;1318;-44
2022/12/03 01:52:46;;;;;;;;;;;22.00;36.80;;;;;;464697;256;1463;-44
2022/12/03 01:54:47;;;;;;;;;;;22.10;36.60;;;;;;464692;256;1694;-43
2022/12/03 01:56:48;;;;;;;;;;;22.20;36.50;;;;;;465042;256;1361;-43
2022/12/03 01:58:50;;;;;;;;;;;22.30;36.40;;;;;;464872;256;1321;-44
2022/12/03 02:00:51;;;;;;;;;;;22.30;36.20;;;;;;464699;256;1282;-44
2022/12/03 02:02:52;;;;;;;;;;;22.40;36.10;;;;;;464668;256;1275;-44
2022/12/03 02:04:54;;;;;;;;;;;22.40;36.00;;;;;;464697;256;2182;-44
2022/12/03 02:06:55;;;;;;;;;;;22.50;36.00;;;;;;464694;256;1256;-44
2022/12/03 02:08:58;;;;;;;;;;;22.50;35.90;;;;;;465092;256;1251;-44
2022/12/03 02:10:57;;;;;;;;;;;22.60;35.90;;;;;;464963;256;1960;-44
2022/12/03 02:12:59;;;;;;;;;;;22.60;35.80;;;;;;464665;256;1312;-44
2022/12/03 02:15:00;;;;;;;;;;;22.60;35.80;;;;;;464950;256;1306;-44
2022/12/03 02:17:02;;;;;;;;;;;22.70;35.70;;;;;;464795;256;1322;-44
2022/12/03 02:19:03;;;;;;;;;;;22.70;35.70;;;;;;465117;256;1447;-44
2022/12/03 02:21:04;;;;;;;;;;;22.70;35.60;;;;;;464788;256;1741;-44
2022/12/03 02:23:06;;;;;;;;;;;22.70;35.60;;;;;;464654;256;1764;-43
2022/12/03 02:25:07;;;;;;;;;;;22.80;35.60;;;;;;465060;256;2151;-44
2022/12/03 02:27:08;;;;;;;;;;;22.80;35.50;;;;;;464743;256;1463;-43
2022/12/03 02:29:10;;;;;;;;;;;22.80;35.50;;;;;;464658;256;1570;-44
2022/12/03 02:31:11;;;;;;;;;;;22.80;35.50;;;;;;464630;256;1341;-44
2022/12/03 02:33:12;;;;;;;;;;;22.80;35.40;;;;;;464793;256;1231;-44
2022/12/03 02:35:14;;;;;;;;;;;22.90;35.40;;;;;;464661;256;1775;-44
2022/12/03 02:37:15;;;;;;;;;;;22.90;35.40;;;;;;464765;256;1240;-44
2022/12/03 02:39:16;;;;;;;;;;;22.90;35.40;;;;;;464660;256;1750;-44
2022/12/03 02:43:38;;;;;;;;;;;22.90;35.30;;;;;;464633;256;1503;-44
2022/12/03 02:45:39;;;;;;;;;;;23.00;35.40;;;;;;464967;256;2154;-44
2022/12/03 02:47:41;;;;;;;;;;;23.00;35.30;;;;;;464644;256;1334;-44
2022/12/03 02:49:42;;;;;;;;;;;23.00;35.30;;;;;;464990;256;1440;-43
2022/12/03 02:51:43;;;;;;;;;;;23.00;35.30;;;;;;464865;256;1360;-44
2022/12/03 02:53:45;;;;;;;;;;;23.00;35.20;;;;;;464681;256;1331;-44
2022/12/03 02:55:46;;;;;;;;;;;23.00;35.20;;;;;;464664;256;1726;-44
2022/12/03 02:57:47;;;;;;;;;;;23.00;35.20;;;;;;464726;256;1324;-44
2022/12/03 02:59:49;;;;;;;;;;;23.00;35.20;;;;;;464696;256;1376;-43
2022/12/03 03:01:50;;;;;;;;;;;23.10;35.20;;;;;;464983;256;1260;-44
2022/12/03 03:03:51;;;;;;;;;;;23.10;35.10;;;;;;464875;256;1444;-44
2022/12/03 03:05:53;;;;;;;;;;;23.10;35.10;;;;;;464704;256;2183;-44
2022/12/03 03:07:54;;;;;;;;;;;23.10;35.10;;;;;;464941;256;1261;-43
2022/12/03 03:09:55;;;;;;;;;;;23.10;35.10;;;;;;465127;256;1275;-43
2022/12/03 03:11:57;;;;;;;;;;;23.10;35.10;;;;;;464766;256;1112;-44
2022/12/03 03:13:58;;;;;;;;;;;23.20;35.10;;;;;;465051;256;1321;-44
2022/12/03 03:15:59;;;;;;;;;;;23.20;35.00;;;;;;464729;256;1230;-44
2022/12/03 03:18:01;;;;;;;;;;;23.20;35.00;;;;;;464714;256;1248;-44
2022/12/03 03:20:02;;;;;;;;;;;23.20;35.00;;;;;;465165;256;1207;-43
2022/12/03 03:22:04;;;;;;;;;;;23.20;35.00;;;;;;465145;256;1238;-44
2022/12/03 03:24:05;;;;;;;;;;;23.20;35.00;;;;;;464765;256;1251;-44
2022/12/03 03:26:06;;;;;;;;;;;23.20;34.90;;;;;;464917;256;2221;-44
2022/12/03 03:28:07;;;;;;;;;;;23.20;34.90;;;;;;464689;256;1705;-44
2022/12/03 03:30:09;;;;;;;;;;;23.30;35.00;;;;;;464904;256;1310;-44
2022/12/03 03:32:10;;;;;;;;;;;23.30;35.00;;;;;;464711;256;1270;-44
2022/12/03 03:34:11;;;;;;;;;;;23.30;35.00;;;;;;465160;256;1213;-44
2022/12/03 03:36:13;;;;;;;;;;;23.30;35.00;;;;;;465151;256;1263;-44
2022/12/03 03:38:14;;;;;;;;;;;23.30;34.90;;;;;;465048;256;1380;-44
2022/12/03 03:40:15;;;;;;;;;;;23.30;34.90;;;;;;465128;256;1264;-44
2022/12/03 03:42:17;;;;;;;;;;;23.30;34.90;;;;;;465152;256;1251;-44
2022/12/03 03:44:18;;;;;;;;;;;23.30;34.90;;;;;;464788;256;1258;-44
2022/12/03 03:46:19;;;;;;;;;;;23.30;34.90;;;;;;464601;256;2226;-44
2022/12/03 03:48:21;;;;;;;;;;;23.30;34.90;;;;;;464689;256;1238;-44
2022/12/03 03:50:22;;;;;;;;;;;23.30;34.80;;;;;;465138;256;1237;-44
2022/12/03 03:52:23;;;;;;;;;;;23.40;34.90;;;;;;464769;256;1370;-44
2022/12/03 03:54:25;;;;;;;;;;;23.40;34.90;;;;;;464696;256;1240;-44
2022/12/03 03:56:26;;;;;;;;;;;23.40;34.80;;;;;;464686;256;1676;-44
2022/12/03 03:58:27;;;;;;;;;;;23.40;34.90;;;;;;464705;256;1257;-44
2022/12/03 04:00:29;;;;;;;;;;;23.30;35.00;;;;;;464731;256;1316;-44
2022/12/03 04:02:30;;;;;;;;;;;23.30;35.10;;;;;;464574;256;1825;-43
2022/12/03 04:04:31;;;;;;;;;;;23.10;35.30;;;;;;464685;256;1222;-44
2022/12/03 04:06:32;;;;;;;;;;;22.90;35.50;;;;;;464858;256;2197;-44
2022/12/03 04:08:34;;;;;;;;;;;22.80;35.80;;;;;;464674;256;1237;-44
2022/12/03 04:12:54;;;;;;;;;;;22.50;36.30;;;;;;464623;257;1307;-44
2022/12/03 04:14:56;;;;;;;;;;;22.40;36.50;;;;;;464740;256;1306;-44
2022/12/03 04:16:57;;;;;;;;;;;22.40;36.60;;;;;;464587;256;1266;-44
2022/12/03 04:18:58;;;;;;;;;;;22.30;36.70;;;;;;464722;256;1465;-44
2022/12/03 04:23:20;;;;;;;;;;;22.20;37.00;;;;;;464600;257;1253;-43
2022/12/03 04:30:04;;;;;;;;;;;22.10;37.20;;;;;;446470;257;1342;-44
2022/12/03 04:36:44;;;;;;;;;;;22.60;36.40;;;;;;464645;256;1602;-44
2022/12/03 04:38:45;;;;;;;;;;;22.60;36.40;;;;;;464591;256;1543;-44
2022/12/03 04:41:03;;;;;;;;;;;22.40;36.40;;;;;;464667;256;1641;-43
2022/12/03 04:43:04;;;;;;;;;;;22.30;36.70;;;;;;464747;256;1895;-43
2022/12/03 04:45:05;;;;;;;;;;;22.20;36.90;;;;;;464657;256;2214;-44
2022/12/03 04:47:07;;;;;;;;;;;22.10;37.00;;;;;;464825;256;1238;-44
2022/12/03 04:49:08;;;;;;;;;;;22.10;37.10;;;;;;464706;256;1446;-44
2022/12/03 04:51:09;;;;;;;;;;;22.00;37.20;;;;;;464960;256;1267;-43
2022/12/03 04:53:11;;;;;;;;;;;22.00;37.30;;;;;;464942;256;1290;-44
2022/12/03 04:55:12;;;;;;;;;;;21.90;37.40;;;;;;464602;256;1645;-44
2022/12/03 04:57:13;;;;;;;;;;;21.90;37.50;;;;;;465132;256;1230;-44
2022/12/03 04:59:15;;;;;;;;;;;21.80;37.50;;;;;;464716;256;1693;-44
2022/12/03 05:01:17;;;;;;;;;;;21.90;37.50;;;;;;464771;256;1289;-43
2022/12/03 05:03:18;;;;;;;;;;;21.80;37.50;;;;;;464704;256;1242;-43
2022/12/03 05:05:19;;;;;;;;;;;21.80;37.60;;;;;;464952;256;2217;-44
2022/12/03 05:07:20;;;;;;;;;;;21.80;37.60;;;;;;464680;256;1594;-44
2022/12/03 05:09:22;;;;;;;;;;;21.70;37.70;;;;;;464653;256;1250;-44
2022/12/03 05:11:23;;;;;;;;;;;21.70;37.70;;;;;;464889;256;1413;-44
2022/12/03 05:13:24;;;;;;;;;;;21.70;37.70;;;;;;464596;256;1318;-43
2022/12/03 05:15:26;;;;;;;;;;;21.70;37.70;;;;;;464546;256;2043;-43
2022/12/03 05:17:27;;;;;;;;;;;21.70;37.80;;;;;;464574;256;1341;-43
2022/12/03 05:21:49;;;;;;;;;;;21.60;37.80;;;;;;464738;256;1688;-43
2022/12/03 05:23:50;;;;;;;;;;;21.70;37.90;;;;;;464589;256;1357;-43
2022/12/03 05:25:52;;;;;;;;;;;21.60;37.80;;;;;;464588;256;2190;-43
2022/12/03 05:27:53;;;;;;;;;;;21.60;37.90;;;;;;464689;256;1309;-44
2022/12/03 05:29:54;;;;;;;;;;;21.60;37.90;;;;;;464741;256;1218;-43
2022/12/03 05:31:56;;;;;;;;;;;21.50;37.90;;;;;;464783;256;1367;-44
2022/12/03 05:33:57;;;;;;;;;;;21.60;38.00;;;;;;464596;256;1459;-44
2022/12/03 05:35:58;;;;;;;;;;;21.60;37.90;;;;;;464790;256;1422;-44
2022/12/03 05:37:59;;;;;;;;;;;21.60;37.90;;;;;;465035;256;1291;-44
2022/12/03 05:40:01;;;;;;;;;;;21.60;37.90;;;;;;464759;256;1324;-43
2022/12/03 05:44:21;;;;;;;;;;;21.60;37.90;;;;;;464675;256;1317;-43
2022/12/03 05:46:23;;;;;;;;;;;21.60;37.90;;;;;;464640;256;2163;-44
2022/12/03 05:48:24;;;;;;;;;;;21.50;37.90;;;;;;464768;256;1341;-43
2022/12/03 05:50:25;;;;;;;;;;;21.50;38.00;;;;;;464748;256;1389;-43
2022/12/03 05:52:27;;;;;;;;;;;21.50;38.00;;;;;;465124;256;1310;-43
2022/12/03 05:54:28;;;;;;;;;;;21.50;38.00;;;;;;465121;256;1276;-44
2022/12/03 05:56:29;;;;;;;;;;;21.40;38.00;;;;;;465118;256;1334;-43
2022/12/03 05:58:31;;;;;;;;;;;21.50;38.00;;;;;;464805;256;1264;-43
2022/12/03 06:00:32;;;;;;;;;;;21.50;38.00;;;;;;464954;256;1259;-43
2022/12/03 06:02:33;;;;;;;;;;;21.40;38.00;;;;;;464744;256;1291;-44
2022/12/03 06:04:35;;;;;;;;;;;21.50;38.10;;;;;;464985;256;1249;-43
2022/12/03 06:06:36;;;;;;;;;;;21.50;38.10;;;;;;465154;256;2230;-43
2022/12/03 06:08:37;;;;;;;;;;;21.40;38.00;;;;;;464956;256;1351;-43
2022/12/03 06:10:38;;;;;;;;;;;21.50;38.00;;;;;;464718;256;1334;-44
2022/12/03 06:12:40;;;;;;;;;;;21.50;38.10;;;;;;464731;256;1342;-43
2022/12/03 06:14:41;;;;;;;;;;;21.40;38.00;;;;;;464760;256;1280;-43
2022/12/03 06:16:42;;;;;;;;;;;21.40;38.00;;;;;;464663;256;1396;-44
2022/12/03 06:18:44;;;;;;;;;;;21.40;38.10;;;;;;464728;256;1411;-43
2022/12/03 06:20:45;;;;;;;;;;;21.40;38.00;;;;;;464659;256;1313;-43
2022/12/03 06:22:46;;;;;;;;;;;21.40;38.00;;;;;;464738;256;1255;-44
2022/12/03 06:24:49;;;;;;;;;;;21.40;38.00;;;;;;464652;256;1352;-43
2022/12/03 06:26:49;;;;;;;;;;;21.40;38.10;;;;;;464633;257;2202;-44
2022/12/03 06:28:50;;;;;;;;;;;21.40;38.10;;;;;;464978;256;1277;-43
2022/12/03 06:30:52;;;;;;;;;;;21.40;38.10;;;;;;464691;256;1375;-44
2022/12/03 06:32:53;;;;;;;;;;;21.40;38.10;;;;;;464928;256;1294;-44
2022/12/03 06:34:54;;;;;;;;;;;21.40;38.10;;;;;;464670;256;1277;-44
2022/12/03 06:36:56;;;;;;;;;;;21.40;38.10;;;;;;464684;256;1357;-44
2022/12/03 06:38:57;;;;;;;;;;;21.40;38.10;;;;;;464737;256;1271;-44
2022/12/03 06:40:58;;;;;;;;;;;21.40;38.10;;;;;;465052;256;1224;-44
2022/12/03 06:43:00;;;;;;;;;;;21.40;38.10;;;;;;464946;256;1219;-44
2022/12/03 06:45:01;;;;;;;;;;;21.50;37.90;;;;;;464839;256;1229;-44
2022/12/03 06:47:02;;;;;;;;;;;21.70;37.50;;;;;;465129;256;2178;-44
2022/12/03 06:49:04;;;;;;;;;;;21.90;37.20;;;;;;464685;256;1333;-44
2022/12/03 06:51:05;;;;;;;;;;;22.10;36.90;;;;;;464759;256;1449;-44
2022/12/03 06:53:06;;;;;;;;;;;22.20;36.70;;;;;;464653;256;1243;-44
2022/12/03 06:55:08;;;;;;;;;;;22.30;36.50;;;;;;464667;256;1337;-43
2022/12/03 06:57:09;;;;;;;;;;;22.40;36.40;;;;;;464799;256;1699;-44
2022/12/03 06:59:11;;;;;;;;;;;22.40;36.20;;;;;;465104;256;1283;-44
2022/12/03 07:01:11;;;;;;;;;;;22.40;36.30;;;;;;464651;256;1660;-44
2022/12/03 07:03:13;;;;;;;;;;;22.30;36.40;;;;;;464682;256;1834;-44
2022/12/03 07:05:14;;;;;;;;;;;22.20;36.50;;;;;;464673;256;1271;-44
2022/12/03 07:07:16;;;;;;;;;;;22.10;36.80;;;;;;464656;256;2214;-44
2022/12/03 07:09:17;;;;;;;;;;;22.00;37.00;;;;;;464648;256;1334;-43
2022/12/03 07:11:30;;;;;;;;;;;21.90;37.20;;;;;;464682;256;1566;-44
2022/12/03 07:13:31;;;;;;;;;;;21.80;37.30;;;;;;464695;256;1254;-44
2022/12/03 07:15:33;;;;;;;;;;;21.70;37.40;;;;;;465150;256;1328;-44
2022/12/03 07:17:34;;;;;;;;;;;21.70;37.40;;;;;;464689;256;1303;-44
2022/12/03 07:19:35;;;;;;;;;;;21.60;37.60;;;;;;465145;256;1231;-43
2022/12/03 07:21:37;;;;;;;;;;;21.60;37.80;;;;;;464713;256;1218;-43
2022/12/03 07:23:38;;;;;;;;;;;21.60;37.80;;;;;;465140;256;1372;-44
2022/12/03 07:25:39;;;;;;;;;;;21.60;37.80;;;;;;465171;256;1610;-44
2022/12/03 07:27:41;;;;;;;;;;;21.60;37.80;;;;;;464935;256;2139;-44
2022/12/03 07:29:42;;;;;;;;;;;21.50;37.80;;;;;;464992;256;1340;-44
2022/12/03 07:31:43;;;;;;;;;;;21.50;37.80;;;;;;464876;256;1200;-44
2022/12/03 07:33:45;;;;;;;;;;;21.50;37.80;;;;;;464703;256;1226;-43
2022/12/03 07:35:46;;;;;;;;;;;21.50;37.90;;;;;;464692;256;1718;-44
2022/12/03 07:37:47;;;;;;;;;;;21.50;37.80;;;;;;464670;256;1296;-44
2022/12/03 07:39:49;;;;;;;;;;;21.50;37.90;;;;;;464699;256;1259;-43
2022/12/03 07:41:50;;;;;;;;;;;21.40;38.00;;;;;;464628;256;1289;-44
2022/12/03 07:43:51;;;;;;;;;;;21.40;38.00;;;;;;464682;256;1240;-44
2022/12/03 07:45:53;;;;;;;;;;;21.30;38.00;;;;;;464949;256;2166;-44
2022/12/03 07:47:54;;;;;;;;;;;21.30;38.10;;;;;;464636;256;1283;-44
2022/12/03 07:49:55;;;;;;;;;;;21.40;38.10;;;;;;464608;256;1294;-44
2022/12/03 07:51:57;;;;;;;;;;;21.40;38.00;;;;;;464698;256;1628;-44
2022/12/03 07:53:58;;;;;;;;;;;21.40;38.00;;;;;;464745;256;1558;-44
2022/12/03 07:55:59;;;;;;;;;;;21.40;38.10;;;;;;464819;256;1597;-44
2022/12/03 07:58:01;;;;;;;;;;;21.40;38.00;;;;;;464855;256;1328;-44
2022/12/03 08:00:04;;;;;;;;;;;21.40;38.10;;;;;;464699;256;1667;-44
2022/12/03 08:02:03;;;;;;;;;;;21.30;38.10;;;;;;464511;257;2423;-44
2022/12/03 08:04:05;;;;;;;;;;;21.30;38.10;;;;;;464755;256;1308;-43
2022/12/03 08:06:06;;;;;;;;;;;21.30;38.10;;;;;;464589;256;2182;-44
2022/12/03 08:08:07;;;;;;;;;;;21.40;38.20;;;;;;464823;256;1388;-44
2022/12/03 08:10:08;;;;;;;;;;;21.30;38.10;;;;;;464667;256;1383;-44
2022/12/03 08:12:10;;;;;;;;;;;21.30;38.10;;;;;;464701;256;1319;-44
2022/12/03 08:14:12;;;;;;;;;;;21.30;38.20;;;;;;464831;256;1208;-44
2022/12/03 08:16:13;;;;;;;;;;;21.30;38.20;;;;;;464647;256;1291;-44
2022/12/03 08:18:14;;;;;;;;;;;21.30;38.10;;;;;;464797;256;1532;-43
2022/12/03 08:20:16;;;;;;;;;;;21.30;38.10;;;;;;464685;256;1241;-43
2022/12/03 08:22:17;;;;;;;;;;;21.30;38.10;;;;;;464753;256;1318;-43
2022/12/03 08:24:18;;;;;;;;;;;21.30;38.10;;;;;;465052;256;1288;-44
2022/12/03 08:26:20;;;;;;;;;;;21.30;38.10;;;;;;465021;256;2202;-43
2022/12/03 08:28:21;;;;;;;;;;;21.30;38.20;;;;;;464980;256;1242;-43
2022/12/03 08:30:22;;;;;;;;;;;21.30;38.20;;;;;;464639;256;1353;-44
2022/12/03 08:32:24;;;;;;;;;;;21.20;38.20;;;;;;464739;256;1681;-44
2022/12/03 08:34:25;;;;;;;;;;;21.30;38.30;;;;;;464717;256;1687;-44
2022/12/03 08:36:27;;;;;;;;;;;21.20;38.20;;;;;;464790;256;1739;-44
2022/12/03 08:38:28;;;;;;;;;;;21.30;38.20;;;;;;464955;256;1708;-43
2022/12/03 08:40:29;;;;;;;;;;;21.30;38.20;;;;;;464855;256;1672;-43
2022/12/03 08:42:43;;;;;;;;;;;21.30;38.20;;;;;;464500;256;1366;-43
2022/12/03 08:44:44;;;;;;;;;;;21.30;38.10;;;;;;464628;256;1692;-43
2022/12/03 08:46:46;;;;;;;;;;;21.30;38.10;;;;;;464678;256;2163;-43
2022/12/03 08:48:47;;;;;;;;;;;21.30;38.20;;;;;;464831;256;1356;-44
2022/12/03 08:50:48;;;;;;;;;;;21.30;38.20;;;;;;464818;256;1214;-44
2022/12/03 08:52:50;;;;;;;;;;;21.20;38.20;;;;;;464777;256;1320;-43
2022/12/03 08:54:51;;;;;;;;;;;21.30;38.20;;;;;;465129;256;1402;-44
2022/12/03 08:56:52;;;;;;;;;;;21.30;38.20;;;;;;464998;256;1231;-44
2022/12/03 08:58:54;;;;;;;;;;;21.30;38.20;;;;;;464691;256;1424;-43
2022/12/03 09:00:55;;;;;;;;;;;21.30;38.20;;;;;;464983;256;1237;-44
2022/12/03 09:02:57;;;;;;;;;;;21.30;38.20;;;;;;465104;256;1222;-43
2022/12/03 09:04:58;;;;;;;;;;;21.20;38.20;;;;;;465101;256;1226;-44
2022/12/03 09:06:59;;;;;;;;;;;21.30;38.20;;;;;;464903;256;2155;-43
2022/12/03 09:09:00;;;;;;;;;;;21.30;38.30;;;;;;464835;256;2644;-44
2022/12/03 09:11:02;;;;;;;;;;;21.20;38.20;;;;;;465150;256;1219;-44
2022/12/03 09:13:03;;;;;;;;;;;21.20;38.20;;;;;;464679;256;1240;-43
2022/12/03 09:15:04;;;;;;;;;;;21.20;38.20;;;;;;464904;256;1190;-44
2022/12/03 09:17:06;;;;;;;;;;;21.30;38.30;;;;;;464598;256;1703;-43
2022/12/03 09:19:07;;;;;;;;;;;21.20;38.30;;;;;;464938;256;1201;-44
2022/12/03 09:21:08;;;;;;;;;;;21.20;38.20;;;;;;464822;256;1617;-43
2022/12/03 09:23:10;;;;;;;;;;;21.20;38.30;;;;;;464751;256;1298;-43
2022/12/03 09:25:11;;;;;;;;;;;21.20;38.40;;;;;;465040;256;1224;-44
2022/12/03 09:27:12;;;;;;;;;;;21.20;38.30;;;;;;464597;256;2171;-44
2022/12/03 09:29:14;;;;;;;;;;;21.20;38.20;;;;;;464713;256;1256;-43
2022/12/03 09:31:15;;;;;;;;;;;21.20;38.20;;;;;;464527;256;1716;-44
2022/12/03 09:33:16;;;;;;;;;;;21.20;38.20;;;;;;464783;256;1290;-43
2022/12/03 09:35:18;;;;;;;;;;;21.20;38.20;;;;;;464719;256;1306;-44
2022/12/03 09:37:20;;;;;;;;;;;21.20;38.20;;;;;;464686;256;1377;-44
2022/12/03 09:39:20;;;;;;;;;;;21.30;38.20;;;;;;464634;257;2121;-44
2022/12/03 09:41:22;;;;;;;;;;;21.20;38.10;;;;;;464925;256;1434;-43
2022/12/03 09:43:23;;;;;;;;;;;21.20;38.20;;;;;;464700;256;1344;-44
2022/12/03 09:45:24;;;;;;;;;;;21.20;38.20;;;;;;464719;256;1303;-44
2022/12/03 09:47:26;;;;;;;;;;;21.20;38.20;;;;;;464673;256;2183;-44
2022/12/03 09:49:27;;;;;;;;;;;21.40;38.00;;;;;;465010;256;1332;-43
2022/12/03 09:51:28;;;;;;;;;;;21.60;37.60;;;;;;464919;256;1349;-43
2022/12/03 09:53:30;;;;;;;;;;;21.80;37.30;;;;;;464769;256;1353;-44
2022/12/03 09:55:31;;;;;;;;;;;21.90;37.10;;;;;;464858;256;1324;-44
2022/12/03 09:57:32;;;;;;;;;;;22.00;36.80;;;;;;464638;256;1222;-44
2022/12/03 09:59:34;;;;;;;;;;;22.10;36.70;;;;;;464721;256;1399;-43
2022/12/03 10:01:35;;;;;;;;;;;22.20;36.50;;;;;;464597;256;1707;-44
2022/12/03 10:03:37;;;;;;;;;;;22.30;36.40;;;;;;464736;256;1336;-44
2022/12/03 10:05:38;;;;;;;;;;;22.30;36.20;;;;;;465100;256;1230;-44
2022/12/03 10:07:39;;;;;;;;;;;22.30;36.20;;;;;;464551;256;2198;-44
2022/12/03 10:09:40;;;;;;;;;;;22.40;36.10;;;;;;465137;256;1337;-44
2022/12/03 10:11:42;;;;;;;;;;;22.50;36.00;;;;;;464513;256;1348;-44
2022/12/03 10:13:43;;;;;;;;;;;22.50;36.00;;;;;;465007;256;1255;-44
2022/12/03 10:15:45;;;;;;;;;;;22.50;35.90;;;;;;464704;256;1428;-44
2022/12/03 10:17:46;;;;;;;;;;;22.60;35.90;;;;;;465122;256;1276;-43
2022/12/03 10:19:47;;;;;;;;;;;22.60;35.80;;;;;;464720;256;1226;-43
2022/12/03 10:21:49;;;;;;;;;;;22.60;35.80;;;;;;465055;256;1231;-44
2022/12/03 10:23:50;;;;;;;;;;;22.60;35.70;;;;;;464715;256;1238;-44
2022/12/03 10:25:51;;;;;;;;;;;22.70;35.70;;;;;;464816;256;1242;-44
2022/12/03 10:27:53;;;;;;;;;;;22.70;35.70;;;;;;464750;256;2155;-44
2022/12/03 10:29:54;;;;;;;;;;;22.70;35.60;;;;;;464814;256;1281;-45
2022/12/03 10:31:55;;;;;;;;;;;22.80;35.60;;;;;;464785;256;1181;-44
2022/12/03 10:33:57;;;;;;;;;;;22.80;35.50;;;;;;464771;256;1062;-44
2022/12/03 10:35:58;;;;;;;;;;;22.80;35.50;;;;;;464756;256;1116;-44
2022/12/03 10:37:59;;;;;;;;;;;22.80;35.50;;;;;;464717;256;1117;-44
2022/12/03 10:40:01;;;;;;;;;;;22.90;35.50;;;;;;465042;256;1187;-44
2022/12/03 10:42:02;;;;;;;;;;;22.90;35.50;;;;;;465126;256;1271;-44
2022/12/03 10:44:04;;;;;;;;;;;22.90;35.40;;;;;;465138;256;1267;-44
2022/12/03 10:46:05;;;;;;;;;;;22.90;35.40;;;;;;464913;256;1281;-44
2022/12/03 10:48:06;;;;;;;;;;;23.00;35.40;;;;;;464826;256;2159;-44
2022/12/03 10:50:07;;;;;;;;;;;23.00;35.30;;;;;;465135;256;1247;-44
2022/12/03 10:52:09;;;;;;;;;;;23.00;35.40;;;;;;465068;256;1456;-44
2022/12/03 10:54:10;;;;;;;;;;;23.00;35.30;;;;;;464835;256;1227;-44
2022/12/03 10:56:11;;;;;;;;;;;23.00;35.30;;;;;;465007;256;1262;-44
2022/12/03 10:58:13;;;;;;;;;;;23.00;35.30;;;;;;465135;256;1297;-43
2022/12/03 11:00:14;;;;;;;;;;;23.00;35.30;;;;;;465137;256;1272;-43
2022/12/03 11:02:16;;;;;;;;;;;23.00;35.20;;;;;;464930;256;1212;-44
2022/12/03 11:04:17;;;;;;;;;;;23.00;35.20;;;;;;465090;256;1205;-44
2022/12/03 11:06:18;;;;;;;;;;;23.10;35.20;;;;;;465144;256;1280;-44
2022/12/03 11:08:20;;;;;;;;;;;23.10;35.20;;;;;;465001;256;2275;-44
2022/12/03 11:10:21;;;;;;;;;;;23.10;35.20;;;;;;464646;256;1464;-43
2022/12/03 11:12:22;;;;;;;;;;;23.10;35.10;;;;;;464649;256;1318;-45
2022/12/03 11:14:24;;;;;;;;;;;23.10;35.10;;;;;;464597;256;1296;-44
2022/12/03 11:16:25;;;;;;;;;;;23.10;35.10;;;;;;464616;256;1705;-44
2022/12/03 11:18:26;;;;;;;;;;;23.10;35.10;;;;;;464788;256;1431;-44
2022/12/03 11:20:28;;;;;;;;;;;23.20;35.10;;;;;;464953;256;1687;-44
2022/12/03 11:22:29;;;;;;;;;;;23.20;35.10;;;;;;464643;256;1318;-44
2022/12/03 11:24:30;;;;;;;;;;;23.20;35.10;;;;;;464755;256;1721;-44
2022/12/03 11:26:32;;;;;;;;;;;23.20;35.00;;;;;;464971;256;1415;-45
2022/12/03 11:28:33;;;;;;;;;;;23.20;35.00;;;;;;464836;256;2167;-44
2022/12/03 11:30:34;;;;;;;;;;;23.20;35.00;;;;;;464734;256;1305;-44
2022/12/03 11:32:36;;;;;;;;;;;23.20;35.00;;;;;;464801;256;1233;-44
2022/12/03 11:34:37;;;;;;;;;;;23.30;35.00;;;;;;464721;256;1271;-43
2022/12/03 11:36:38;;;;;;;;;;;23.20;35.00;;;;;;464875;256;1218;-44
2022/12/03 11:38:40;;;;;;;;;;;23.20;35.00;;;;;;464689;256;1401;-44
2022/12/03 11:40:41;;;;;;;;;;;23.20;34.90;;;;;;464809;256;1387;-44
2022/12/03 11:42:42;;;;;;;;;;;23.30;34.90;;;;;;464651;256;1259;-44
2022/12/03 11:44:44;;;;;;;;;;;23.30;35.00;;;;;;464681;256;1393;-44
2022/12/03 11:46:45;;;;;;;;;;;23.30;35.00;;;;;;464741;256;1258;-43
2022/12/03 11:48:46;;;;;;;;;;;23.30;34.90;;;;;;464728;256;2163;-43
2022/12/03 11:50:48;;;;;;;;;;;23.30;35.00;;;;;;464771;256;1276;-44
2022/12/03 11:52:49;;;;;;;;;;;23.30;34.90;;;;;;464842;256;1308;-44
2022/12/03 11:54:50;;;;;;;;;;;23.30;34.90;;;;;;464812;256;1356;-44
2022/12/03 11:56:52;;;;;;;;;;;23.30;34.90;;;;;;465003;256;1268;-44
2022/12/03 11:58:53;;;;;;;;;;;23.30;34.90;;;;;;465019;256;1515;-44
2022/12/03 12:00:54;;;;;;;;;;;23.30;34.90;;;;;;465119;256;1225;-43
2022/12/03 12:02:56;;;;;;;;;;;23.30;34.90;;;;;;465112;256;1221;-43
2022/12/03 12:04:57;;;;;;;;;;;23.40;34.90;;;;;;465083;256;1245;-44
2022/12/03 12:06:58;;;;;;;;;;;23.40;34.90;;;;;;464830;256;1596;-44
2022/12/03 12:09:02;;;;;;;;;;;23.40;34.90;;;;;;464789;256;2130;-44
2022/12/03 12:11:01;;;;;;;;;;;23.40;34.90;;;;;;464719;256;1953;-44
2022/12/03 12:13:02;;;;;;;;;;;23.30;35.00;;;;;;464721;256;1601;-44
2022/12/03 12:15:03;;;;;;;;;;;23.20;35.10;;;;;;464698;256;1216;-43
2022/12/03 12:17:05;;;;;;;;;;;23.10;35.30;;;;;;464783;256;1382;-43
2022/12/03 12:19:06;;;;;;;;;;;22.90;35.70;;;;;;465098;256;1307;-44